createdAt,value
2023-01-02T00:00:45.125Z,12.16
2023-01-02T00:03:17.141Z,12.10
2023-01-02T00:05:48.773Z,12.13
2023-01-02T00:08:20.499Z,12.18
2023-01-02T00:10:53.124Z,12.19
2023-01-02T00:13:25.276Z,12.18
2023-01-02T00:15:56.913Z,12.17
2023-01-02T00:18:28.838Z,12.15
2023-01-02T00:21:00.361Z,12.08
2023-01-02T00:23:32.692Z,12.08
2023-01-02T00:26:04.241Z,12.06
2023-01-02T00:28:36.063Z,12.10
2023-01-02T00:31:07.719Z,12.12
2023-01-02T00:33:39.770Z,12.09
2023-01-02T00:36:11.351Z,12.15
2023-01-02T00:38:43.244Z,12.14
2023-01-02T00:41:14.774Z,12.14
2023-01-02T00:43:46.757Z,12.14
2023-01-02T00:46:18.920Z,12.13
2023-01-02T00:48:51.078Z,12.12
2023-01-02T00:51:22.651Z,12.15
2023-01-02T00:53:54.591Z,12.14
2023-01-02T00:56:26.109Z,12.13
2023-01-02T00:58:58.108Z,12.12
2023-01-02T01:01:29.763Z,12.17
2023-01-02T01:04:01.810Z,12.18
2023-01-02T01:06:33.362Z,12.18
2023-01-02T01:09:05.174Z,12.17
2023-01-02T01:11:36.705Z,12.14
2023-01-02T01:14:08.534Z,12.10
2023-01-02T01:16:40.249Z,12.10
2023-01-02T01:19:11.876Z,12.10
2023-01-02T01:21:43.382Z,12.07
2023-01-02T01:24:15.252Z,12.08
2023-01-02T01:26:46.793Z,12.09
2023-01-02T01:29:18.779Z,12.11
2023-01-02T01:31:50.445Z,12.10
2023-01-02T01:34:22.324Z,12.10
2023-01-02T01:36:53.843Z,12.09
2023-01-02T01:39:25.816Z,12.11
2023-01-02T01:41:57.337Z,12.09
2023-01-02T01:44:29.181Z,12.08
2023-01-02T01:47:00.746Z,12.09
2023-01-02T01:49:32.741Z,12.09
2023-01-02T01:52:04.293Z,12.09
2023-01-02T01:54:36.374Z,12.10
2023-01-02T01:57:07.906Z,12.13
2023-01-02T01:59:39.763Z,12.16
2023-01-02T02:02:11.450Z,12.16
2023-01-02T02:04:43.623Z,12.17
2023-01-02T02:07:15.189Z,12.20
2023-01-02T02:09:47.104Z,12.21
2023-01-02T02:12:22.921Z,12.25
2023-01-02T02:14:57.911Z,12.27
2023-01-02T02:17:29.545Z,12.31
2023-01-02T02:20:01.401Z,12.33
2023-01-02T02:22:32.955Z,12.41
2023-01-02T02:25:04.869Z,12.40
2023-01-02T02:27:36.406Z,12.47
2023-01-02T02:30:08.365Z,12.51
2023-01-02T02:32:39.960Z,12.53
2023-01-02T02:35:11.886Z,12.50
2023-01-02T02:37:43.463Z,12.56
2023-01-02T02:40:15.350Z,12.58
2023-01-02T02:42:46.884Z,12.59
2023-01-02T02:45:18.780Z,12.56
2023-01-02T02:47:50.310Z,12.57
2023-01-02T02:50:22.212Z,12.55
2023-01-02T02:52:53.745Z,12.59
2023-01-02T02:55:25.663Z,12.64
2023-01-02T02:57:57.257Z,12.62
2023-01-02T03:00:29.148Z,12.57
2023-01-02T03:03:00.891Z,12.64
2023-01-02T03:05:32.938Z,12.67
2023-01-02T03:08:04.487Z,12.66
2023-01-02T03:10:36.447Z,12.63
2023-01-02T03:13:08.018Z,12.66
2023-01-02T03:15:39.889Z,12.65
2023-01-02T03:18:11.447Z,12.63
2023-01-02T03:20:43.318Z,12.62
2023-01-02T03:23:14.855Z,12.61
2023-01-02T03:25:46.651Z,12.59
2023-01-02T03:28:18.221Z,12.64
2023-01-02T03:30:50.179Z,12.65
2023-01-02T03:33:21.787Z,12.66
2023-01-02T03:35:53.643Z,12.69
2023-01-02T03:38:25.173Z,12.65
2023-01-02T03:40:57.125Z,12.68
2023-01-02T03:43:29.450Z,12.67
2023-01-02T03:46:01.351Z,12.70
2023-01-02T03:48:33.477Z,12.72
2023-01-02T03:51:05.010Z,12.70
2023-01-02T03:53:36.955Z,12.74
2023-01-02T03:56:08.508Z,12.73
2023-01-02T03:58:40.374Z,12.78
2023-01-02T04:01:12.036Z,12.81
2023-01-02T04:03:44.000Z,12.81
2023-01-02T04:06:15.535Z,12.85
2023-01-02T04:08:47.492Z,12.83
2023-01-02T04:11:19.049Z,12.91
2023-01-02T04:13:50.831Z,12.92
2023-01-02T04:16:22.389Z,12.98
2023-01-02T04:18:54.248Z,13.01
2023-01-02T04:21:25.761Z,13.02
2023-01-02T04:23:57.719Z,13.04
2023-01-02T04:26:29.247Z,13.08
2023-01-02T04:29:01.216Z,13.10
2023-01-02T04:31:32.773Z,13.13
2023-01-02T04:34:04.778Z,13.10
2023-01-02T04:36:36.355Z,13.09
2023-01-02T04:39:08.243Z,13.15
2023-01-02T04:41:39.814Z,13.19
2023-01-02T04:44:11.852Z,13.19
2023-01-02T04:46:43.500Z,13.24
2023-01-02T04:49:15.387Z,13.21
2023-01-02T04:51:46.900Z,13.25
2023-01-02T04:54:18.443Z,13.24
2023-01-02T04:56:50.261Z,13.22
2023-01-02T04:59:21.768Z,13.25
2023-01-02T05:01:53.997Z,13.22
2023-01-02T05:04:25.637Z,13.24
2023-01-02T05:06:57.467Z,13.23
2023-01-02T05:09:28.990Z,13.23
2023-01-02T05:12:00.945Z,13.22
2023-01-02T05:14:32.454Z,13.24
2023-01-02T05:17:04.351Z,13.26
2023-01-02T05:19:35.852Z,13.24
2023-01-02T05:22:26.504Z,13.22
2023-01-02T05:24:58.016Z,13.25
2023-01-02T05:27:29.776Z,13.22
2023-01-02T05:30:01.295Z,13.14
2023-01-02T05:32:33.177Z,13.13
2023-01-02T05:35:04.746Z,13.16
2023-01-02T05:37:36.616Z,13.12
2023-01-02T05:40:08.163Z,13.13
2023-01-02T05:42:40.104Z,13.13
2023-01-02T05:45:11.621Z,13.12
2023-01-02T05:47:43.436Z,13.13
2023-01-02T05:50:14.940Z,13.14
2023-01-02T05:52:46.796Z,13.12
2023-01-02T05:55:18.329Z,13.13
2023-01-02T05:57:50.355Z,13.20
2023-01-02T06:00:21.873Z,13.22
2023-01-02T06:02:53.744Z,13.23
2023-01-02T06:05:25.290Z,13.27
2023-01-02T06:07:57.164Z,13.24
2023-01-02T06:10:28.685Z,13.24
2023-01-02T06:13:00.758Z,13.22
2023-01-02T06:15:32.291Z,13.27
2023-01-02T06:18:04.118Z,13.26
2023-01-02T06:20:35.639Z,13.23
2023-01-02T06:23:07.518Z,13.21
2023-01-02T06:25:39.019Z,13.25
2023-01-02T06:28:10.985Z,13.25
2023-01-02T06:30:42.524Z,13.25
2023-01-02T06:33:14.421Z,13.22
2023-01-02T06:35:45.945Z,13.23
2023-01-02T06:38:17.778Z,13.25
2023-01-02T06:40:49.291Z,13.27
2023-01-02T06:43:21.130Z,13.25
2023-01-02T06:45:52.785Z,13.31
2023-01-02T06:48:24.692Z,13.31
2023-01-02T06:50:56.291Z,13.31
2023-01-02T06:53:28.224Z,13.34
2023-01-02T06:55:59.754Z,13.34
2023-01-02T06:58:31.781Z,13.38
2023-01-02T07:01:03.828Z,13.40
2023-01-02T07:03:35.721Z,13.42
2023-01-02T07:06:07.239Z,13.42
2023-01-02T07:08:39.173Z,13.48
2023-01-02T07:11:10.762Z,13.46
2023-01-02T07:13:42.754Z,13.48
2023-01-02T07:16:14.364Z,13.48
2023-01-02T07:18:46.263Z,13.47
2023-01-02T07:21:20.550Z,13.50
2023-01-02T07:23:52.431Z,13.50
2023-01-02T07:26:23.942Z,13.45
2023-01-02T07:28:55.810Z,13.45
2023-01-02T07:31:29.195Z,13.48
2023-01-02T07:34:01.132Z,13.46
2023-01-02T07:36:32.681Z,13.50
2023-01-02T07:39:04.533Z,13.50
2023-01-02T07:41:36.201Z,13.53
2023-01-02T07:44:08.088Z,13.53
2023-01-02T07:46:39.663Z,13.56
2023-01-02T07:49:11.615Z,13.57
2023-01-02T07:51:43.139Z,13.62
2023-01-02T07:54:15.007Z,13.67
2023-01-02T07:56:46.533Z,13.73
2023-01-02T07:59:18.559Z,13.82
2023-01-02T08:01:50.117Z,13.89
2023-01-02T08:04:22.124Z,13.97
2023-01-02T08:06:53.657Z,14.11
2023-01-02T08:09:25.607Z,14.21
2023-01-02T08:11:57.127Z,14.18
2023-01-02T08:14:28.995Z,14.24
2023-01-02T08:17:00.594Z,13.86
2023-01-02T08:19:32.487Z,14.36
2023-01-02T08:22:04.094Z,14.36
2023-01-02T08:24:35.905Z,14.39
2023-01-02T08:27:07.436Z,14.39
2023-01-02T08:29:39.766Z,14.43
2023-01-02T08:32:11.290Z,14.52
2023-01-02T08:34:43.151Z,14.52
2023-01-02T08:37:14.653Z,14.55
2023-01-02T08:39:46.517Z,14.57
2023-01-02T08:42:18.032Z,14.64
2023-01-02T08:44:50.008Z,14.65
2023-01-02T08:47:21.536Z,14.68
2023-01-02T08:49:53.429Z,14.63
2023-01-02T08:52:24.979Z,14.63
2023-01-02T08:54:56.993Z,14.61
2023-01-02T08:57:28.502Z,14.64
2023-01-02T09:00:00.465Z,14.59
2023-01-02T09:02:32.295Z,14.55
2023-01-02T09:05:04.244Z,14.57
2023-01-02T09:07:35.754Z,14.51
2023-01-02T09:10:07.609Z,14.59
2023-01-02T09:12:39.132Z,14.64
2023-01-02T09:15:11.031Z,14.74
2023-01-02T09:17:42.563Z,14.82
2023-01-02T09:20:14.442Z,14.81
2023-01-02T09:22:45.978Z,14.81
2023-01-02T09:25:23.848Z,14.87
2023-01-02T09:27:55.972Z,14.90
2023-01-02T09:30:27.856Z,15.00
2023-01-02T09:32:59.370Z,15.04
2023-01-02T09:35:31.210Z,15.10
2023-01-02T09:38:03.017Z,15.25
2023-01-02T09:40:34.513Z,15.33
2023-01-02T09:43:06.306Z,15.37
2023-01-02T09:45:37.832Z,15.42
2023-01-02T09:48:09.577Z,15.45
2023-01-02T09:50:41.099Z,15.48
2023-01-02T09:53:12.973Z,15.57
2023-01-02T09:55:45.120Z,15.56
2023-01-02T09:58:16.973Z,15.74
2023-01-02T10:00:48.502Z,15.67
2023-01-02T10:03:20.451Z,15.66
2023-01-02T10:05:52.073Z,15.80
2023-01-02T10:08:31.181Z,15.75
2023-01-02T10:11:03.658Z,15.82
2023-01-02T10:14:08.904Z,15.84
2023-01-02T10:16:27.176Z,15.90
2023-01-02T10:18:59.179Z,16.00
2023-01-02T10:21:30.710Z,15.96
2023-01-02T10:24:02.625Z,16.12
2023-01-02T10:26:34.150Z,15.93
2023-01-02T10:29:06.130Z,15.96
2023-01-02T10:31:38.728Z,15.93
2023-01-02T10:34:15.291Z,15.89
2023-01-02T10:36:46.828Z,15.85
2023-01-02T10:39:18.635Z,15.86
2023-01-02T10:41:50.236Z,15.95
2023-01-02T10:44:22.342Z,15.80
2023-01-02T10:46:53.872Z,15.75
2023-01-02T10:49:25.764Z,15.72
2023-01-02T10:51:57.323Z,15.72
2023-01-02T10:54:29.098Z,15.70
2023-01-02T10:57:00.627Z,15.73
2023-01-02T10:59:32.754Z,15.73
2023-01-02T11:02:04.390Z,15.75
2023-01-02T11:04:36.283Z,15.78
2023-01-02T11:07:07.834Z,15.81
2023-01-02T11:09:40.615Z,15.78
2023-01-02T11:12:12.186Z,15.78
2023-01-02T11:14:44.055Z,15.79
2023-01-02T11:17:15.693Z,15.66
2023-01-02T11:19:47.615Z,15.66
2023-01-02T11:22:19.169Z,15.56
2023-01-02T11:24:54.480Z,15.57
2023-01-02T11:27:31.372Z,15.49
2023-01-02T11:30:03.400Z,15.45
2023-01-02T11:32:35.069Z,15.43
2023-01-02T11:35:07.208Z,15.43
2023-01-02T11:37:38.791Z,15.41
2023-01-02T11:40:10.671Z,15.39
2023-01-02T11:43:00.974Z,15.49
2023-01-02T11:45:32.892Z,15.41
2023-01-02T11:48:04.456Z,15.47
2023-01-02T11:50:36.489Z,15.51
2023-01-02T11:53:08.013Z,15.53
2023-01-02T11:55:39.791Z,15.45
2023-01-02T11:58:11.328Z,15.50
2023-01-02T12:00:43.254Z,15.43
2023-01-02T12:03:18.390Z,15.35
2023-01-02T12:05:50.725Z,15.24
2023-01-02T12:08:22.235Z,15.33
2023-01-02T12:10:54.110Z,15.30
2023-01-02T12:13:25.618Z,15.38
2023-01-02T12:15:57.351Z,15.45
2023-01-02T12:18:28.861Z,15.44
2023-01-02T12:21:00.739Z,15.30
2023-01-02T12:23:32.349Z,15.11
2023-01-02T12:26:08.897Z,15.07
2023-01-02T12:28:41.093Z,15.09
2023-01-02T12:31:13.065Z,15.08
2023-01-02T12:33:44.633Z,14.95
2023-01-02T12:36:16.571Z,15.02
2023-01-02T12:38:48.091Z,15.01
2023-01-02T12:41:19.978Z,15.01
2023-01-02T12:43:51.541Z,15.00
2023-01-02T12:46:23.396Z,15.06
2023-01-02T12:48:54.974Z,15.09
2023-01-02T12:51:26.835Z,15.13
2023-01-02T12:54:20.578Z,15.10
2023-01-02T12:56:51.229Z,14.99
2023-01-02T12:59:23.576Z,14.97
2023-01-02T13:01:55.247Z,14.99
2023-01-02T13:04:27.155Z,14.97
2023-01-02T13:06:58.712Z,14.87
2023-01-02T13:09:30.703Z,14.73
2023-01-02T13:12:02.352Z,14.66
2023-01-02T13:14:34.267Z,14.53
2023-01-02T13:17:05.887Z,14.52
2023-01-02T13:19:37.729Z,14.57
2023-01-02T13:22:09.287Z,14.53
2023-01-02T13:24:41.096Z,14.54
2023-01-02T13:27:12.635Z,14.58
2023-01-02T13:29:44.448Z,14.60
2023-01-02T13:32:15.997Z,14.68
2023-01-02T13:34:48.292Z,14.62
2023-01-02T13:37:19.845Z,14.65
2023-01-02T13:39:51.746Z,14.64
2023-01-02T13:42:42.147Z,14.61
2023-01-02T13:45:14.031Z,14.61
2023-01-02T13:47:48.363Z,14.64
2023-01-02T13:50:20.286Z,14.70
2023-01-02T13:52:51.809Z,14.68
2023-01-02T13:55:28.820Z,14.69
2023-01-02T13:58:00.369Z,14.70
2023-01-02T14:00:32.277Z,14.69
2023-01-02T14:03:03.930Z,14.72
2023-01-02T14:05:35.887Z,14.72
2023-01-02T14:08:07.416Z,14.69
2023-01-02T14:10:39.505Z,14.75
2023-01-02T14:13:11.085Z,14.74
2023-01-02T14:15:43.124Z,14.69
2023-01-02T14:18:14.661Z,14.69
2023-01-02T14:20:46.485Z,14.73
2023-01-02T14:23:18.033Z,14.71
2023-01-02T14:25:49.936Z,14.72
2023-01-02T14:28:21.468Z,14.74
2023-01-02T14:30:53.454Z,14.73
2023-01-02T14:33:25.028Z,14.72
2023-01-02T14:35:59.938Z,14.75
2023-01-02T14:38:31.532Z,14.72
2023-01-02T14:41:22.181Z,14.69
2023-01-02T14:43:53.791Z,14.66
2023-01-02T14:46:25.614Z,14.70
2023-01-02T14:48:58.364Z,14.72
2023-01-02T14:51:30.288Z,14.72
2023-01-02T14:54:01.859Z,14.72
2023-01-02T14:56:33.679Z,14.72
2023-01-02T14:59:05.199Z,14.69
2023-01-02T15:01:43.474Z,14.66
2023-01-02T15:04:15.831Z,14.69
2023-01-02T15:06:47.836Z,14.63
2023-01-02T15:09:19.473Z,14.61
2023-01-02T15:12:09.790Z,14.60
2023-01-02T15:14:41.373Z,14.58
2023-01-02T15:17:13.172Z,14.57
2023-01-02T15:19:44.748Z,14.58
2023-01-02T15:22:17.449Z,14.60
2023-01-02T15:24:49.012Z,14.58
2023-01-02T15:27:20.865Z,14.57
2023-01-02T15:29:53.753Z,14.53
2023-01-02T15:32:25.581Z,14.56
2023-01-02T15:34:57.136Z,14.58
2023-01-02T15:37:28.971Z,14.53
2023-01-02T15:40:00.532Z,14.50
2023-01-02T15:42:51.182Z,14.52
2023-01-02T15:45:22.721Z,14.47
2023-01-02T15:47:54.741Z,14.50
2023-01-02T15:50:26.256Z,14.51
2023-01-02T15:52:58.098Z,14.30
2023-01-02T15:55:29.592Z,14.20
2023-01-02T15:58:01.416Z,14.10
2023-01-02T16:00:33.004Z,14.06
2023-01-02T16:03:05.200Z,14.00
2023-01-02T16:05:36.825Z,13.98
2023-01-02T16:08:08.702Z,13.90
2023-01-02T16:10:40.206Z,13.95
2023-01-02T16:13:30.846Z,13.90
2023-01-02T16:16:15.853Z,13.89
2023-01-02T16:18:49.000Z,13.75
2023-01-02T16:21:20.528Z,13.70
2023-01-02T16:23:52.451Z,13.71
2023-01-02T16:26:24.364Z,13.62
2023-01-02T16:28:56.201Z,13.58
2023-01-02T16:31:28.941Z,13.41
2023-01-02T16:34:00.857Z,13.39
2023-01-02T16:36:32.401Z,13.36
2023-01-02T16:39:04.345Z,13.30
2023-01-02T16:41:41.050Z,13.29
2023-01-02T16:44:13.287Z,13.21
2023-01-02T16:46:44.797Z,13.23
2023-01-02T16:49:16.768Z,13.14
2023-01-02T16:51:48.298Z,13.12
2023-01-02T16:54:20.188Z,13.03
2023-01-02T16:56:51.846Z,12.99
2023-01-02T16:59:23.665Z,12.84
2023-01-02T17:01:55.289Z,12.78
2023-01-02T17:04:27.161Z,12.66
2023-01-02T17:06:58.674Z,12.47
2023-01-02T17:09:30.681Z,12.39
2023-01-02T17:12:02.241Z,12.28
2023-01-02T17:14:34.378Z,12.13
2023-01-02T17:17:05.892Z,12.01
2023-01-02T17:19:37.900Z,11.95
2023-01-02T17:22:09.432Z,11.77
2023-01-02T17:24:41.432Z,11.70
2023-01-02T17:27:12.950Z,11.61
2023-01-02T17:29:44.841Z,11.59
2023-01-02T17:32:20.411Z,11.51
2023-01-02T17:34:53.332Z,11.57
2023-01-02T17:37:25.010Z,11.59
2023-01-02T17:39:57.886Z,11.54
2023-01-02T17:42:29.456Z,11.55
2023-01-02T17:45:01.403Z,11.53
2023-01-02T17:48:00.706Z,11.51
2023-01-02T17:50:24.789Z,11.48
2023-01-02T17:52:56.307Z,11.49
2023-01-02T17:55:28.110Z,11.52
2023-01-02T17:58:00.928Z,11.52
2023-01-02T18:00:32.942Z,11.48
2023-01-02T18:03:04.490Z,11.50
2023-01-02T18:05:36.520Z,11.49
2023-01-02T18:08:08.033Z,11.47
2023-01-02T18:10:39.944Z,11.52
2023-01-02T18:13:11.531Z,11.46
2023-01-02T18:15:43.319Z,11.48
2023-01-02T18:18:15.823Z,11.55
2023-01-02T18:20:47.724Z,11.49
2023-01-02T18:23:19.245Z,11.50
2023-01-02T18:25:51.160Z,11.54
2023-01-02T18:28:23.121Z,11.48
2023-01-02T18:30:54.715Z,11.44
2023-01-02T18:33:27.110Z,11.37
2023-01-02T18:35:59.369Z,11.34
2023-01-02T18:38:31.550Z,11.40
2023-01-02T18:41:03.475Z,11.46
2023-01-02T18:43:38.380Z,11.42
2023-01-02T18:46:09.956Z,11.40
2023-01-02T18:48:41.864Z,11.37
2023-01-02T18:51:13.360Z,11.37
2023-01-02T18:53:44.986Z,11.36
2023-01-02T18:56:16.502Z,11.38
2023-01-02T18:58:51.501Z,11.38
2023-01-02T19:01:23.814Z,11.41
2023-01-02T19:03:58.425Z,11.39
2023-01-02T19:06:29.962Z,11.34
2023-01-02T19:09:01.878Z,11.22
2023-01-02T19:11:51.998Z,11.29
2023-01-02T19:14:23.885Z,11.28
2023-01-02T19:16:55.407Z,11.20
2023-01-02T19:19:27.317Z,11.22
2023-01-02T19:21:59.883Z,11.18
2023-01-02T19:24:31.442Z,11.08
2023-01-02T19:27:02.967Z,10.18
2023-01-02T19:29:34.583Z,11.05
2023-01-02T19:32:06.115Z,11.05
2023-01-02T19:34:38.029Z,10.86
2023-01-02T19:37:09.584Z,10.86
2023-01-02T19:39:42.701Z,10.85
2023-01-02T19:42:20.206Z,10.82
2023-01-02T19:44:52.113Z,10.71
2023-01-02T19:47:23.671Z,10.72
2023-01-02T19:49:55.608Z,10.69
2023-01-02T19:52:27.211Z,10.69
2023-01-02T19:54:59.026Z,10.69
2023-01-02T19:57:30.659Z,10.54
2023-01-02T20:00:02.207Z,10.59
2023-01-02T20:02:33.849Z,10.55
2023-01-02T20:05:05.678Z,10.60
2023-01-02T20:07:37.181Z,10.53
2023-01-02T20:10:08.787Z,10.50
2023-01-02T20:12:41.359Z,10.38
2023-01-02T20:15:13.092Z,10.45
2023-01-02T20:17:44.617Z,10.51
2023-01-02T20:20:16.380Z,10.51
2023-01-02T20:22:49.272Z,10.43
2023-01-02T20:25:24.333Z,10.40
2023-01-02T20:27:56.265Z,10.44
2023-01-02T20:30:28.307Z,10.37
2023-01-02T20:32:59.899Z,10.30
2023-01-02T20:35:31.821Z,10.23
2023-01-02T20:38:03.325Z,10.24
2023-01-02T20:40:34.854Z,10.21
2023-01-02T20:43:06.421Z,10.17
2023-01-02T20:45:37.969Z,10.13
2023-01-02T20:48:09.528Z,10.08
2023-01-02T20:50:41.103Z,10.08
2023-01-02T20:53:12.691Z,10.07
2023-01-02T20:55:44.871Z,10.11
2023-01-02T20:58:16.443Z,10.04
2023-01-02T21:00:48.435Z,10.08
2023-01-02T21:03:20.138Z,9.99
2023-01-02T21:05:53.635Z,10.01
2023-01-02T21:08:25.582Z,10.05
2023-01-02T21:10:57.151Z,9.98
2023-01-02T21:13:28.694Z,9.93
2023-01-02T21:16:00.291Z,9.93
2023-01-02T21:18:32.204Z,9.92
2023-01-02T21:21:05.383Z,9.95
2023-01-02T21:23:37.286Z,9.84
2023-01-02T21:26:08.953Z,9.83
2023-01-02T21:28:40.494Z,9.85
2023-01-02T21:31:12.049Z,9.79
2023-01-02T21:33:43.970Z,9.80
2023-01-02T21:36:15.864Z,9.79
2023-01-02T21:38:47.863Z,9.80
2023-01-02T21:41:38.441Z,9.78
2023-01-02T21:44:09.974Z,9.78
2023-01-02T21:46:41.911Z,9.78
2023-01-02T21:49:13.485Z,9.69
2023-01-02T21:51:45.072Z,9.60
2023-01-02T21:54:16.569Z,9.57
2023-01-02T21:56:48.501Z,9.55
2023-01-02T21:59:21.122Z,9.58
2023-01-02T22:01:52.873Z,9.57
2023-01-02T22:04:24.540Z,9.59
2023-01-02T22:09:48.032Z,9.52
2023-01-02T22:12:20.002Z,9.44
2023-01-02T22:14:51.571Z,9.50
2023-01-02T22:17:23.539Z,9.49
2023-01-02T22:19:55.130Z,9.45
2023-01-02T22:22:27.115Z,9.48
2023-01-02T22:24:58.618Z,9.53
2023-01-02T22:27:30.150Z,9.49
2023-01-02T22:32:53.616Z,9.39
2023-01-02T22:35:26.605Z,9.36
2023-01-02T22:37:59.845Z,9.42
2023-01-02T22:40:31.350Z,9.42
2023-01-02T22:43:05.356Z,9.30
2023-01-02T22:45:37.585Z,9.28
2023-01-02T22:48:09.432Z,9.31
2023-01-02T22:50:41.061Z,9.31
2023-01-02T22:53:12.857Z,9.31
2023-01-02T22:55:44.384Z,9.32
2023-01-02T22:58:16.314Z,9.26
2023-01-02T23:00:47.869Z,9.25
2023-01-02T23:03:19.667Z,9.15
2023-01-02T23:05:51.225Z,9.06
2023-01-02T23:08:23.134Z,9.02
2023-01-02T23:10:54.721Z,9.04
2023-01-02T23:13:26.668Z,9.02
2023-01-02T23:16:16.735Z,9.04
2023-01-02T23:19:07.128Z,9.01
2023-01-02T23:21:38.760Z,8.95
2023-01-02T23:24:10.728Z,8.94
2023-01-02T23:26:42.214Z,8.91
2023-01-02T23:29:14.160Z,8.86
2023-01-02T23:31:45.689Z,8.84
2023-01-02T23:34:17.548Z,8.87
2023-01-02T23:36:49.063Z,8.94
2023-01-02T23:39:20.607Z,8.94
2023-01-02T23:41:52.159Z,8.96
2023-01-02T23:44:24.095Z,8.95
2023-01-02T23:46:55.666Z,8.95
2023-01-02T23:49:27.503Z,8.97
2023-01-02T23:51:59.056Z,8.98
2023-01-02T23:54:30.862Z,8.99
2023-01-02T23:57:02.378Z,8.92
2023-01-02T23:59:33.920Z,8.91
